Wetterdaten: Woche 11.02.13 - 17.02.13 (KW7)
Datum Zeit Temp. A. Feuchte A. Luftdruck Regen Wind Richtung Taupunkt Windchill Windben
11.02.2013 00:00 -2,7 C 82 % 1012,2 hPa 0,0 l/m 4,8 km/h N -5,3 C -2,7 C 13,3 km/h
11.02.2013 01:00 -2,8 C 81 % 1012,0 hPa 0,0 l/m 3,5 km/h N -5,6 C -2,8 C 8,9 km/h
11.02.2013 02:00 -2,9 C 81 % 1011,7 hPa 0,0 l/m 0,6 km/h N -5,7 C -2,9 C 3,2 km/h
11.02.2013 03:00 -3,6 C 81 % 1011,2 hPa 0,0 l/m 0,0 km/h N -6,4 C -3,6 C 0,0 km/h
11.02.2013 04:00 -5,6 C 80 % 1011,1 hPa 0,0 l/m 0,0 km/h N -8,5 C -5,6 C 0,0 km/h
11.02.2013 05:00 -7,6 C 81 % 1010,9 hPa 0,0 l/m 0,0 km/h N -10,3 C -7,6 C 0,0 km/h
11.02.2013 06:00 -8,1 C 84 % 1010,8 hPa 0,0 l/m 0,0 km/h N -10,4 C -8,1 C 0,4 km/h
11.02.2013 07:00 -6,9 C 86 % 1010,7 hPa 0,0 l/m 0,0 km/h N -8,9 C -6,9 C 0,4 km/h
11.02.2013 08:00 -6,0 C 86 % 1010,5 hPa 0,0 l/m 0,1 km/h N -7,9 C -6,0 C 2,0 km/h
11.02.2013 09:00 -4,5 C 86 % 1010,1 hPa 0,0 l/m 3,3 km/h N -6,5 C -4,5 C 12,1 km/h
11.02.2013 10:00 -3,5 C 84 % 1009,8 hPa 0,0 l/m 4,6 km/h N -5,8 C -3,5 C 16,9 km/h
11.02.2013 11:00 -3,0 C 82 % 1009,3 hPa 0,0 l/m 7,3 km/h N -5,7 C -4,1 C 24,1 km/h
11.02.2013 12:00 -2,5 C 80 % 1008,7 hPa 0,0 l/m 9,0 km/h N -5,4 C -5,1 C 23,7 km/h
11.02.2013 13:00 -1,0 C 75 % 1008,0 hPa 0,0 l/m 8,6 km/h N -4,8 C -3,0 C 25,8 km/h
11.02.2013 14:00 -0,7 C 74 % 1007,8 hPa 0,0 l/m 8,5 km/h N -4,8 C -2,8 C 22,1 km/h
11.02.2013 15:00 -0,3 C 72 % 1007,7 hPa 0,0 l/m 7,8 km/h N -4,7 C -2,2 C 22,5 km/h
11.02.2013 16:00 -0,1 C 70 % 1007,5 hPa 0,0 l/m 6,1 km/h N -5,0 C -0,3 C 21,7 km/h
11.02.2013 17:00 -0,3 C 68 % 1007,4 hPa 0,0 l/m 8,5 km/h N -5,5 C -2,3 C 27,0 km/h
11.02.2013 18:00 -0,5 C 70 % 1007,5 hPa 0,0 l/m 12,7 km/h N -5,3 C -6,1 C 32,2 km/h
11.02.2013 19:00 -0,4 C 71 % 1007,6 hPa 0,0 l/m 15,8 km/h N -5,0 C -7,9 C 33,0 km/h
11.02.2013 20:00 -0,7 C 75 % 1007,7 hPa 0,0 l/m 13,8 km/h N -4,7 C -7,1 C 29,8 km/h
11.02.2013 21:00 -0,9 C 77 % 1008,0 hPa 0,0 l/m 9,9 km/h N -4,4 C -4,1 C 26,5 km/h
11.02.2013 22:00 -1,0 C 81 % 1008,0 hPa 0,0 l/m 12,0 km/h N -3,8 C -5,9 C 31,4 km/h
11.02.2013 23:00 -1,8 C 85 % 1008,4 hPa 0,0 l/m 7,3 km/h N -4,0 C -2,8 C 22,1 km/h
12.02.2013 00:00 -2,1 C 85 % 1008,7 hPa 0,0 l/m 5,8 km/h N -4,3 C -2,6 C 20,1 km/h
12.02.2013 01:00 -2,5 C 85 % 1008,8 hPa 0,0 l/m 4,1 km/h N -4,8 C -2,5 C 16,9 km/h
12.02.2013 02:00 -3,0 C 84 % 1008,6 hPa 0,0 l/m 3,4 km/h N -5,3 C -3,0 C 12,9 km/h
12.02.2013 03:00 -3,2 C 84 % 1008,1 hPa 0,0 l/m 3,4 km/h N -5,5 C -3,2 C 15,3 km/h
12.02.2013 04:00 -3,3 C 84 % 1007,9 hPa 0,0 l/m 3,3 km/h N -5,6 C -3,3 C 12,5 km/h
12.02.2013 05:00 -3,5 C 84 % 1007,9 hPa 0,0 l/m 4,9 km/h N -5,7 C -3,5 C 16,9 km/h
12.02.2013 06:00 -3,6 C 85 % 1007,8 hPa 0,0 l/m 2,3 km/h N -5,7 C -3,6 C 10,9 km/h
12.02.2013 07:00 -3,5 C 84 % 1007,7 hPa 0,0 l/m 1,6 km/h N -5,8 C -3,5 C 8,0 km/h
12.02.2013 08:00 -3,1 C 84 % 1008,0 hPa 0,0 l/m 2,0 km/h N -5,4 C -3,1 C 10,1 km/h
12.02.2013 09:00 -2,6 C 84 % 1008,2 hPa 0,0 l/m 1,5 km/h N -5,0 C -2,6 C 6,8 km/h
12.02.2013 10:00 -1,8 C 84 % 1008,3 hPa 0,0 l/m 1,7 km/h N -4,2 C -1,8 C 6,8 km/h
12.02.2013 11:00 -1,6 C 85 % 1008,2 hPa 0,0 l/m 2,7 km/h N -3,8 C -1,6 C 10,1 km/h
12.02.2013 12:00 -1,1 C 85 % 1007,8 hPa 0,0 l/m 2,0 km/h N -3,2 C -1,1 C 8,4 km/h
12.02.2013 13:00 -0,8 C 85 % 1007,9 hPa 0,0 l/m 0,6 km/h N -3,0 C -0,8 C 3,6 km/h
12.02.2013 14:00 -0,6 C 85 % 1007,9 hPa 0,0 l/m 0,7 km/h N -2,8 C -0,6 C 5,6 km/h
12.02.2013 15:00 -0,6 C 85 % 1008,2 hPa 0,0 l/m 0,8 km/h N -2,8 C -0,6 C 5,6 km/h
12.02.2013 16:00 -0,6 C 85 % 1008,8 hPa 0,0 l/m 0,7 km/h N -2,8 C -0,6 C 4,4 km/h
12.02.2013 17:00 -0,5 C 85 % 1009,7 hPa 0,0 l/m 0,0 km/h N -2,7 C -0,5 C 0,4 km/h
12.02.2013 18:00 -0,4 C 84 % 1010,6 hPa 0,0 l/m 1,4 km/h N -2,7 C -0,4 C 4,4 km/h
12.02.2013 19:00 -0,5 C 84 % 1011,2 hPa 0,0 l/m 1,8 km/h N -2,9 C -0,5 C 6,8 km/h
12.02.2013 20:00 -0,7 C 86 % 1011,4 hPa 0,0 l/m 1,9 km/h N -2,8 C -0,7 C 6,8 km/h
12.02.2013 21:00 -0,6 C 85 % 1012,0 hPa 0,0 l/m 3,4 km/h N -2,8 C -0,6 C 8,4 km/h
12.02.2013 22:00 -0,6 C 84 % 1012,7 hPa 0,0 l/m 2,1 km/h N -3,0 C -0,6 C 6,8 km/h
12.02.2013 23:00 -0,6 C 85 % 1013,1 hPa 0,0 l/m 3,6 km/h N -2,9 C -0,6 C 10,4 km/h
13.02.2013 00:00 -0,2 C 80 % 1013,4 hPa 0,0 l/m 6,9 km/h N -3,3 C -0,7 C 16,5 km/h
13.02.2013 01:00 -0,1 C 77 % 1013,8 hPa 0,0 l/m 7,7 km/h N -3,6 C -1,4 C 18,1 km/h
13.02.2013 02:00 -0,0 C 76 % 1014,1 hPa 0,0 l/m 9,9 km/h N -3,7 C -3,4 C 21,3 km/h
13.02.2013 03:00 -0,2 C 77 % 1014,4 hPa 0,0 l/m 10,3 km/h N -3,8 C -3,9 C 22,9 km/h
13.02.2013 04:00 -0,3 C 75 % 1015,3 hPa 0,0 l/m 8,9 km/h N -4,1 C -2,7 C 21,3 km/h
13.02.2013 05:00 -0,3 C 74 % 1015,5 hPa 0,0 l/m 11,5 km/h N -4,3 C -5,0 C 25,8 km/h
13.02.2013 06:00 -0,3 C 72 % 1016,0 hPa 0,0 l/m 10,4 km/h N -4,8 C -4,2 C 22,5 km/h
13.02.2013 07:00 -0,6 C 72 % 1016,8 hPa 0,0 l/m 11,8 km/h N -5,0 C -5,5 C 24,1 km/h
13.02.2013 08:00 -0,4 C 72 % 1017,5 hPa 0,0 l/m 12,6 km/h N -4,8 C -5,9 C 25,3 km/h
13.02.2013 09:00 -0,3 C 73 % 1018,0 hPa 0,0 l/m 14,5 km/h N -4,5 C -7,0 C 29,0 km/h
13.02.2013 10:00 -0,2 C 77 % 1018,4 hPa 0,0 l/m 12,9 km/h N -3,7 C -5,9 C 26,5 km/h
13.02.2013 11:00 -0,4 C 80 % 1019,2 hPa 0,0 l/m 15,8 km/h N -3,5 C -7,9 C 30,6 km/h
13.02.2013 12:00 -0,2 C 80 % 1019,3 hPa 0,0 l/m 14,5 km/h N -3,2 C -6,9 C 29,4 km/h
13.02.2013 13:00 -0,1 C 80 % 1019,4 hPa 0,5 l/m 14,7 km/h N -3,1 C -6,8 C 30,6 km/h
13.02.2013 14:00 -0,1 C 80 % 1019,8 hPa 0,3 l/m 10,6 km/h N -3,2 C -4,0 C 24,1 km/h
13.02.2013 15:00 -0,4 C 83 % 1020,3 hPa 0,0 l/m 13,0 km/h N -2,9 C -6,1 C 26,8 km/h
13.02.2013 16:00 -0,4 C 83 % 1020,5 hPa 0,0 l/m 13,2 km/h N -3,0 C -6,3 C 25,7 km/h
13.02.2013 17:00 -0,9 C 85 % 1021,3 hPa 0,0 l/m 14,0 km/h N -3,2 C -7,5 C 29,8 km/h
13.02.2013 18:00 -1,0 C 86 % 1021,7 hPa 0,0 l/m 17,4 km/h N -3,2 C -9,6 C 33,0 km/h
13.02.2013 19:00 -0,9 C 85 % 1021,9 hPa 0,0 l/m 17,7 km/h N -3,1 C -9,6 C 36,2 km/h
13.02.2013 20:00 -1,2 C 85 % 1022,6 hPa 0,0 l/m 15,5 km/h N -3,3 C -8,7 C 30,6 km/h
13.02.2013 21:00 -1,3 C 84 % 1023,0 hPa 0,0 l/m 15,6 km/h N -3,6 C -8,8 C 30,2 km/h
13.02.2013 22:00 -1,2 C 85 % 1023,3 hPa 0,0 l/m 13,3 km/h N -3,5 C -7,3 C 30,6 km/h
13.02.2013 23:00 -1,2 C 86 % 1023,5 hPa 0,0 l/m 13,9 km/h N -3,3 C -7,7 C 29,0 km/h
14.02.2013 00:00 -1,3 C 85 % 1023,5 hPa 0,0 l/m 13,0 km/h N -3,5 C -7,3 C 26,5 km/h
14.02.2013 01:00 -1,3 C 86 % 1023,3 hPa 0,0 l/m 13,6 km/h N -3,4 C -7,6 C 27,8 km/h
14.02.2013 02:00 -1,2 C 86 % 1023,4 hPa 0,0 l/m 12,9 km/h N -3,3 C -6,9 C 27,0 km/h
14.02.2013 03:00 -1,3 C 85 % 1023,3 hPa 0,0 l/m 11,3 km/h N -3,4 C -5,9 C 25,8 km/h
14.02.2013 04:00 -1,6 C 86 % 1023,3 hPa 0,0 l/m 9,3 km/h N -3,7 C -4,5 C 19,7 km/h
14.02.2013 05:00 -1,4 C 86 % 1023,2 hPa 0,0 l/m 11,0 km/h N -3,5 C -5,8 C 24,5 km/h
14.02.2013 06:00 -1,4 C 85 % 1023,3 hPa 0,0 l/m 11,2 km/h N -3,6 C -5,9 C 23,3 km/h
14.02.2013 07:00 -1,3 C 85 % 1023,6 hPa 0,0 l/m 11,4 km/h N -3,5 C -6,1 C 23,7 km/h
14.02.2013 08:00 -1,2 C 86 % 1023,6 hPa 0,0 l/m 10,5 km/h N -3,3 C -5,1 C 23,7 km/h
14.02.2013 09:00 -1,0 C 84 % 1023,5 hPa 0,0 l/m 10,8 km/h N -3,3 C -5,1 C 23,7 km/h
14.02.2013 10:00 -0,8 C 85 % 1023,5 hPa 0,0 l/m 10,4 km/h N -3,1 C -4,6 C 22,9 km/h
14.02.2013 11:00 -0,6 C 85 % 1023,2 hPa 0,0 l/m 9,5 km/h N -2,8 C -3,7 C 20,1 km/h
14.02.2013 12:00 0,1 C 84 % 1022,6 hPa 0,3 l/m 9,1 km/h N -2,3 C -2,6 C 20,9 km/h
14.02.2013 13:00 0,6 C 80 % 1022,0 hPa 0,5 l/m 9,1 km/h N -2,4 C -2,0 C 19,3 km/h
14.02.2013 14:00 0,6 C 80 % 1021,4 hPa 0,5 l/m 8,6 km/h N -2,4 C -1,6 C 18,5 km/h
14.02.2013 15:00 0,6 C 81 % 1021,1 hPa 0,3 l/m 7,0 km/h N -2,4 C -0,2 C 15,3 km/h
14.02.2013 16:00 0,4 C 81 % 1021,0 hPa 0,3 l/m 4,6 km/h N -2,4 C 0,4 C 12,1 km/h
14.02.2013 17:00 0,3 C 82 % 1020,8 hPa 0,0 l/m 3,9 km/h N -2,4 C 0,3 C 9,3 km/h
14.02.2013 18:00 0,3 C 83 % 1020,6 hPa 0,0 l/m 3,1 km/h N -2,2 C 0,3 C 8,4 km/h
14.02.2013 19:00 0,4 C 83 % 1020,4 hPa 0,0 l/m 2,2 km/h N -2,2 C 0,4 C 7,2 km/h
14.02.2013 20:00 0,3 C 83 % 1020,1 hPa 0,0 l/m 0,4 km/h N -2,2 C 0,3 C 3,6 km/h
14.02.2013 21:00 0,3 C 83 % 1020,0 hPa 0,0 l/m 1,6 km/h N -2,2 C 0,3 C 6,4 km/h
14.02.2013 22:00 0,2 C 83 % 1019,8 hPa 0,3 l/m 0,2 km/h N -2,4 C 0,2 C 1,6 km/h
14.02.2013 23:00 -0,1 C 85 % 1019,6 hPa 0,0 l/m 0,8 km/h N -2,3 C -0,1 C 3,2 km/h
15.02.2013 00:00 0,1 C 84 % 1019,3 hPa 0,0 l/m 1,0 km/h N -2,3 C 0,1 C 5,2 km/h
15.02.2013 01:00 0,1 C 84 % 1019,1 hPa 0,0 l/m 0,7 km/h N -2,3 C 0,1 C 4,4 km/h
15.02.2013 02:00 0,0 C 85 % 1018,9 hPa 0,0 l/m 0,0 km/h N -2,3 C 0,0 C 0,0 km/h
15.02.2013 03:00 -0,3 C 85 % 1018,5 hPa 0,0 l/m 0,0 km/h N -2,5 C -0,3 C 0,0 km/h
15.02.2013 04:00 -0,3 C 86 % 1018,0 hPa 0,0 l/m 0,0 km/h N -2,4 C -0,3 C 0,8 km/h
15.02.2013 05:00 -0,4 C 86 % 1017,7 hPa 0,0 l/m 0,0 km/h N -2,5 C -0,4 C 0,8 km/h
15.02.2013 06:00 -0,8 C 86 % 1017,5 hPa 0,0 l/m 0,0 km/h N -2,9 C -0,8 C 0,0 km/h
15.02.2013 07:00 -1,3 C 85 % 1017,7 hPa 0,0 l/m 0,0 km/h N -3,5 C -1,3 C 0,0 km/h
15.02.2013 08:00 -0,9 C 85 % 1018,0 hPa 0,0 l/m 0,3 km/h N -3,2 C -0,9 C 2,0 km/h
15.02.2013 09:00 0,3 C 84 % 1018,2 hPa 0,0 l/m 1,5 km/h N -2,1 C 0,3 C 5,6 km/h
15.02.2013 10:00 1,3 C 85 % 1018,3 hPa 0,3 l/m 1,5 km/h N -0,9 C 1,3 C 5,6 km/h
15.02.2013 11:00 2,5 C 82 % 1018,6 hPa 0,8 l/m 0,7 km/h N -0,3 C 2,5 C 4,0 km/h
15.02.2013 12:00 3,4 C 77 % 1018,4 hPa 1,0 l/m 0,3 km/h N -0,2 C 3,4 C 3,2 km/h
15.02.2013 13:00 3,1 C 76 % 1018,4 hPa 1,0 l/m 0,3 km/h N -0,7 C 3,1 C 4,0 km/h
15.02.2013 14:00 3,2 C 76 % 1018,3 hPa 0,8 l/m 0,3 km/h N -0,6 C 3,2 C 3,6 km/h
15.02.2013 15:00 3,6 C 75 % 1018,5 hPa 0,3 l/m 0,0 km/h N -0,4 C 3,6 C 2,0 km/h
15.02.2013 16:00 3,0 C 76 % 1018,7 hPa 0,0 l/m 0,1 km/h N -0,8 C 3,0 C 1,6 km/h
15.02.2013 17:00 2,0 C 78 % 1019,2 hPa 0,3 l/m 0,0 km/h N -1,4 C 2,0 C 0,0 km/h
15.02.2013 18:00 1,2 C 81 % 1020,0 hPa 0,0 l/m 0,0 km/h N -1,8 C 1,2 C 0,0 km/h
15.02.2013 19:00 0,9 C 84 % 1020,4 hPa 0,0 l/m 0,7 km/h N -1,6 C 0,9 C 2,8 km/h
15.02.2013 20:00 -0,1 C 84 % 1020,8 hPa 0,0 l/m 0,0 km/h N -2,5 C -0,1 C 0,0 km/h
15.02.2013 21:00 -1,7 C 84 % 1021,2 hPa 0,0 l/m 0,1 km/h N -4,0 C -1,7 C 1,6 km/h
15.02.2013 22:00 -2,3 C 86 % 1021,5 hPa 0,0 l/m 0,1 km/h N -4,4 C -2,3 C 0,8 km/h
15.02.2013 23:00 -2,3 C 86 % 1021,8 hPa 0,0 l/m 0,6 km/h N -4,4 C -2,3 C 2,8 km/h
16.02.2013 00:00 -0,4 C 86 % 1021,9 hPa 0,0 l/m 2,8 km/h N -2,6 C -0,4 C 10,1 km/h
16.02.2013 01:00 1,3 C 82 % 1022,0 hPa 0,0 l/m 7,3 km/h N -1,4 C 0,4 C 18,9 km/h
16.02.2013 02:00 1,3 C 81 % 1022,1 hPa 0,0 l/m 7,1 km/h N -1,6 C 0,5 C 17,7 km/h
16.02.2013 03:00 1,3 C 80 % 1022,0 hPa 0,0 l/m 4,5 km/h N -1,8 C 1,3 C 10,1 km/h
16.02.2013 04:00 1,4 C 79 % 1022,0 hPa 0,0 l/m 5,8 km/h N -1,8 C 1,3 C 14,5 km/h
16.02.2013 05:00 1,4 C 78 % 1022,1 hPa 0,0 l/m 4,1 km/h N -2,0 C 1,2 C 11,3 km/h
16.02.2013 06:00 1,5 C 77 % 1022,2 hPa 0,0 l/m 6,7 km/h N -2,0 C 0,6 C 15,3 km/h
16.02.2013 07:00 1,6 C 78 % 1022,5 hPa 0,0 l/m 4,3 km/h N -1,8 C 1,6 C 14,1 km/h
16.02.2013 08:00 1,9 C 77 % 1022,9 hPa 0,0 l/m 6,5 km/h N -1,7 C 1,1 C 16,9 km/h
16.02.2013 09:00 2,2 C 76 % 1023,2 hPa 0,3 l/m 11,6 km/h N -1,6 C -2,2 C 22,5 km/h
16.02.2013 10:00 2,8 C 73 % 1023,5 hPa 0,0 l/m 10,6 km/h N -1,6 C -0,7 C 23,3 km/h
16.02.2013 11:00 4,4 C 67 % 1023,3 hPa 0,0 l/m 11,4 km/h N -1,3 C 0,5 C 21,7 km/h
16.02.2013 12:00 4,6 C 65 % 1023,0 hPa 0,0 l/m 12,0 km/h N -1,5 C 0,3 C 23,3 km/h
16.02.2013 13:00 4,3 C 65 % 1022,7 hPa 0,0 l/m 9,4 km/h N -1,7 C 1,8 C 18,9 km/h
16.02.2013 14:00 4,6 C 65 % 1022,5 hPa 0,0 l/m 8,8 km/h N -1,3 C 2,6 C 20,1 km/h
16.02.2013 15:00 3,9 C 70 % 1022,6 hPa 0,0 l/m 7,8 km/h N -1,0 C 2,6 C 17,7 km/h
16.02.2013 16:00 3,3 C 74 % 1022,8 hPa 0,0 l/m 5,3 km/h N -1,0 C 3,2 C 14,1 km/h
16.02.2013 17:00 2,8 C 76 % 1023,0 hPa 0,0 l/m 4,5 km/h N -0,9 C 2,8 C 12,1 km/h
16.02.2013 18:00 2,5 C 79 % 1023,2 hPa 0,0 l/m 5,2 km/h N -0,8 C 2,5 C 13,7 km/h
16.02.2013 19:00 2,4 C 81 % 1023,3 hPa 0,0 l/m 5,4 km/h N -0,6 C 2,4 C 12,5 km/h
16.02.2013 20:00 2,3 C 82 % 1023,3 hPa 0,0 l/m 5,6 km/h N -0,5 C 2,3 C 11,7 km/h
16.02.2013 21:00 2,3 C 82 % 1023,4 hPa 0,0 l/m 4,7 km/h N -0,4 C 2,3 C 10,5 km/h
16.02.2013 22:00 2,2 C 83 % 1023,5 hPa 0,0 l/m 2,0 km/h N -0,5 C 2,2 C 6,8 km/h
16.02.2013 23:00 2,0 C 83 % 1023,4 hPa 0,0 l/m 2,1 km/h N -0,6 C 2,0 C 6,4 km/h
17.02.2013 00:00 1,8 C 83 % 1023,4 hPa 0,0 l/m 1,3 km/h N -0,8 C 1,8 C 5,6 km/h
17.02.2013 01:00 1,5 C 83 % 1023,3 hPa 0,0 l/m 2,2 km/h N -1,1 C 1,5 C 6,8 km/h
17.02.2013 02:00 1,2 C 81 % 1022,9 hPa 0,0 l/m 3,0 km/h N -1,7 C 1,2 C 9,3 km/h
17.02.2013 03:00 0,8 C 81 % 1022,7 hPa 0,0 l/m 2,5 km/h N -2,0 C 0,8 C 8,8 km/h
17.02.2013 04:00 0,7 C 81 % 1022,8 hPa 0,0 l/m 3,3 km/h N -2,2 C 0,7 C 11,7 km/h
17.02.2013 05:00 0,0 C 82 % 1022,9 hPa 0,0 l/m 1,1 km/h N -2,7 C 0,0 C 4,8 km/h
17.02.2013 06:00 -0,5 C 83 % 1022,9 hPa 0,0 l/m 0,7 km/h N -3,0 C -0,5 C 4,0 km/h
17.02.2013 07:00 -0,8 C 84 % 1023,3 hPa 0,0 l/m 1,1 km/h N -3,2 C -0,8 C 4,8 km/h
17.02.2013 08:00 0,0 C 84 % 1023,5 hPa 0,0 l/m 3,8 km/h N -2,3 C 0,0 C 8,9 km/h
17.02.2013 09:00 1,9 C 78 % 1023,4 hPa 0,0 l/m 4,4 km/h N -1,5 C 1,9 C 9,3 km/h
17.02.2013 10:00 2,8 C 75 % 1023,6 hPa 0,0 l/m 4,6 km/h N -1,2 C 2,8 C 11,7 km/h
17.02.2013 11:00 3,5 C 73 % 1023,5 hPa 0,0 l/m 5,4 km/h N -0,9 C 3,5 C 13,3 km/h
17.02.2013 12:00 4,0 C 70 % 1023,1 hPa 0,0 l/m 4,7 km/h N -0,9 C 4,0 C 12,1 km/h
17.02.2013 13:00 4,2 C 68 % 1022,5 hPa 0,0 l/m 5,7 km/h N -1,3 C 4,1 C 14,1 km/h
17.02.2013 14:00 4,5 C 65 % 1022,2 hPa 0,0 l/m 5,4 km/h N -1,5 C 4,5 C 14,1 km/h
17.02.2013 15:00 3,6 C 68 % 1022,4 hPa 0,0 l/m 6,4 km/h N -1,7 C 3,4 C 16,5 km/h
17.02.2013 16:00 3,0 C 71 % 1022,4 hPa 0,0 l/m 5,0 km/h N -1,8 C 3,0 C 10,9 km/h
17.02.2013 17:00 2,7 C 72 % 1022,7 hPa 0,0 l/m 3,6 km/h N -1,9 C 2,7 C 10,9 km/h
17.02.2013 18:00 2,5 C 73 % 1023,0 hPa 0,0 l/m 1,7 km/h N -1,9 C 2,5 C 6,0 km/h
17.02.2013 19:00 2,3 C 74 % 1023,0 hPa 0,0 l/m 1,8 km/h N -1,8 C 2,3 C 6,8 km/h
17.02.2013 20:00 1,9 C 76 % 1022,9 hPa 0,0 l/m 0,6 km/h N -1,9 C 1,9 C 4,0 km/h
17.02.2013 21:00 0,9 C 77 % 1022,8 hPa 0,0 l/m 0,0 km/h N -2,8 C 0,9 C 0,0 km/h
17.02.2013 22:00 -0,6 C 80 % 1022,9 hPa 0,0 l/m 0,0 km/h N -3,7 C -0,6 C 0,0 km/h
17.02.2013 23:00 -0,9 C 83 % 1022,9 hPa 0,0 l/m 0,0 km/h N -3,3 C -0,9 C 0,0 km/h
Min-Datum _ 11.02.13 16.02.13 11.02.13 - 11.02.13 - 11.02.13 13.02.13 11.02.13
_ Min-Zeit 06:15 11:45 16:45 - 02:30 - 06:00 19:15 03:00
Minimum _ -8,3 C 63 % 1007,3 hPa - 0,0 km/h - -10,8 C -10,5 C 0,0 km/h
Max-Datum _ 16.02.13 14.02.13 13.02.13 15.02.13 13.02.13 - 15.02.13 17.02.13 13.02.13
_ Max-Zeit 11:45 23:00 23:45 12:15 19:15 - 11:15 14:30 19:15
Maximum _ 5,0 C 89 % 1023,7 hPa 1,0 l/m 19,4 km/h
N
- 0,1 C 4,8 C 41,8 km/h
N
Durchschnitt _ -0,1 C 80 % 1017,7 hPa #7,5 l/m 5,5 km/h N -3,1 C -1,7 C 13,6 km/h